Time;durP1;ratioP1;P1;durP2;ratioP2;P2;SDS_P1;SDS_P2;PMS_P1;PMS_P2;Temp;Humidity;BMP_temperature;BMP_pressure;BME280_temperature;BME280_humidity;BME280_pressure;Samples;Min_cycle;Max_cycle;Signal;HPM_P1;HPM_P2
2022/12/31 00:01:16;;;;;;;5.15;1.88;;;11.10;99.90;;;;;;5014996;28;20208;-69
2022/12/31 00:03:43;;;;;;;10.10;2.03;;;11.00;99.90;;;;;;5025606;28;20057;-69
2022/12/31 00:06:28;;;;;;;11.93;2.22;;;11.10;99.90;;;;;;5019520;28;20131;-69
2022/12/31 00:08:56;;;;;;;10.23;1.52;;;11.10;99.90;;;;;;4986518;28;20154;-68
2022/12/31 00:11:22;;;;;;;7.78;2.35;;;11.10;99.90;;;;;;4987463;28;20508;-68
2022/12/31 00:13:49;;;;;;;10.55;1.40;;;11.10;99.90;;;;;;4988060;28;20126;-69
2022/12/31 00:16:23;;;;;;;7.72;2.13;;;11.10;99.90;;;;;;4986187;28;20125;-70
2022/12/31 00:18:52;;;;;;;5.22;1.52;;;11.10;99.90;;;;;;4987538;28;20065;-67
2022/12/31 00:21:19;;;;;;;11.50;2.28;;;11.20;99.90;;;;;;5002294;28;20053;-69
2022/12/31 00:23:45;;;;;;;11.50;2.22;;;11.10;99.90;;;;;;4987502;28;20039;-70
2022/12/31 00:26:14;;;;;;;11.55;1.98;;;11.20;99.90;;;;;;4997688;28;20425;-69
2022/12/31 00:28:40;;;;;;;9.60;2.42;;;11.20;99.90;;;;;;5008789;28;20506;-69
2022/12/31 00:31:09;;;;;;;13.93;2.33;;;11.20;99.90;;;;;;5019728;28;20050;-69
2022/12/31 00:33:35;;;;;;;14.32;2.00;;;11.30;99.90;;;;;;5005884;28;20542;-68
2022/12/31 00:36:10;;;;;;;10.75;1.73;;;11.30;99.90;;;;;;5005138;28;20097;-68
2022/12/31 00:38:37;;;;;;;12.93;2.45;;;11.30;99.90;;;;;;5007034;28;20120;-69
2022/12/31 00:41:04;;;;;;;18.15;2.72;;;11.20;99.90;;;;;;5005270;28;20050;-69
2022/12/31 00:43:29;;;;;;;9.68;2.90;;;11.20;99.90;;;;;;5006459;28;20053;-69
2022/12/31 00:45:55;;;;;;;9.87;2.00;;;11.20;99.90;;;;;;5008841;28;20037;-69
2022/12/31 00:48:21;;;;;;;11.23;2.07;;;11.20;99.90;;;;;;5015931;28;20048;-69
2022/12/31 00:50:46;;;;;;;10.33;2.27;;;11.20;99.90;;;;;;5019813;28;20117;-69
2022/12/31 00:53:12;;;;;;;10.43;2.33;;;11.20;99.90;;;;;;5008845;28;20122;-69
2022/12/31 00:55:38;;;;;;;9.13;1.63;;;11.20;99.90;;;;;;5010418;28;20041;-68
2022/12/31 00:58:03;;;;;;;11.07;1.70;;;11.20;99.90;;;;;;5010339;28;20273;-69
2022/12/31 01:00:29;;;;;;;15.00;2.37;;;11.20;99.90;;;;;;4992613;28;20115;-69
2022/12/31 01:02:54;;;;;;;9.53;2.00;;;11.20;99.90;;;;;;5008620;28;20152;-68
2022/12/31 01:05:20;;;;;;;14.63;2.33;;;11.20;99.90;;;;;;5008699;28;20525;-69
2022/12/31 01:07:46;;;;;;;5.57;1.50;;;11.10;99.90;;;;;;5012546;28;20092;-69
2022/12/31 01:10:11;;;;;;;7.13;1.50;;;11.10;99.90;;;;;;5028676;28;20395;-69
2022/12/31 01:12:37;;;;;;;10.43;2.20;;;11.10;99.90;;;;;;5027893;28;20056;-68
2022/12/31 01:15:03;;;;;;;11.27;1.47;;;11.10;99.90;;;;;;5028453;28;20086;-69
2022/12/31 01:17:29;;;;;;;8.45;1.73;;;11.10;99.90;;;;;;5029214;28;20106;-69
2022/12/31 01:19:54;;;;;;;7.70;1.50;;;11.10;99.90;;;;;;5024615;28;20049;-68
2022/12/31 01:22:20;;;;;;;7.90;1.73;;;11.10;99.90;;;;;;5009514;28;20475;-69
2022/12/31 01:24:46;;;;;;;8.23;1.60;;;11.10;99.90;;;;;;5010744;28;20061;-70
2022/12/31 01:27:11;;;;;;;14.13;2.53;;;11.10;99.90;;;;;;5021811;28;20048;-69
2022/12/31 01:29:37;;;;;;;7.63;1.37;;;11.10;99.90;;;;;;5008472;28;20106;-69
2022/12/31 01:32:03;;;;;;;10.67;2.00;;;11.10;99.90;;;;;;5022376;28;20117;-68
2022/12/31 01:34:28;;;;;;;7.87;1.97;;;11.10;99.90;;;;;;5027404;28;20398;-70
2022/12/31 01:36:54;;;;;;;9.87;2.13;;;11.10;99.90;;;;;;5020896;28;20358;-69
2022/12/31 01:39:19;;;;;;;9.20;2.00;;;11.10;99.90;;;;;;5027633;28;20048;-69
2022/12/31 01:41:46;;;;;;;6.93;1.80;;;11.10;99.90;;;;;;5029254;28;20507;-67
2022/12/31 01:44:12;;;;;;;6.57;1.85;;;11.10;99.90;;;;;;5014608;28;20034;-69
2022/12/31 01:46:55;;;;;;;10.27;1.60;;;11.10;99.90;;;;;;5009638;28;20045;-70
2022/12/31 01:49:35;;;;;;;9.07;1.88;;;11.10;99.90;;;;;;5009317;28;20069;-69
2022/12/31 01:52:22;;;;;;;9.90;2.15;;;11.10;99.90;;;;;;5008163;28;20585;-69
2022/12/31 01:55:17;;;;;;;4.38;2.08;;;11.10;99.90;;;;;;5009079;28;20113;-69
2022/12/31 01:57:46;;;;;;;8.80;2.50;;;11.10;99.90;;;;;;4974603;28;20046;-69
2022/12/31 02:00:13;;;;;;;5.53;1.83;;;11.10;99.90;;;;;;5007582;28;20191;-69
2022/12/31 02:02:38;;;;;;;8.23;2.63;;;11.10;99.90;;;;;;5018505;28;20050;-69
2022/12/31 02:05:14;;;;;;;9.13;1.50;;;11.10;99.90;;;;;;5028236;28;20046;-68
2022/12/31 02:07:41;;;;;;;8.30;1.70;;;11.10;99.90;;;;;;5027187;28;20403;-68
2022/12/31 02:10:07;;;;;;;5.63;1.70;;;11.00;99.90;;;;;;5007383;28;20554;-69
2022/12/31 02:12:32;;;;;;;9.73;2.33;;;11.20;99.90;;;;;;5008820;28;20324;-69
2022/12/31 02:14:58;;;;;;;4.80;1.33;;;11.20;99.90;;;;;;5008709;28;20061;-69
2022/12/31 02:17:45;;;;;;;6.40;1.40;;;11.20;99.90;;;;;;5007538;28;20132;-69
2022/12/31 02:20:14;;;;;;;7.63;1.40;;;11.20;99.90;;;;;;4990640;28;20125;-69
2022/12/31 02:22:45;;;;;;;6.43;1.48;;;11.20;99.90;;;;;;5008696;28;20175;-69
2022/12/31 02:25:23;;;;;;;7.32;1.63;;;11.20;99.90;;;;;;5012678;28;20046;-69
2022/12/31 02:27:55;;;;;;;5.57;1.10;;;11.20;99.90;;;;;;5026931;28;20042;-69
2022/12/31 02:30:23;;;;;;;10.50;1.63;;;11.20;99.90;;;;;;5026765;28;20049;-69
2022/12/31 02:33:13;;;;;;;4.75;1.40;;;11.20;99.90;;;;;;5008942;28;20483;-68
2022/12/31 02:35:51;;;;;;;5.55;1.50;;;11.20;99.90;;;;;;5008225;28;20108;-69
2022/12/31 02:38:22;;;;;;;11.15;1.42;;;11.20;99.90;;;;;;5007048;28;20417;-68
2022/12/31 02:40:48;;;;;;;5.03;1.77;;;11.20;99.90;;;;;;5008158;28;20060;-69
2022/12/31 02:43:14;;;;;;;4.00;1.42;;;11.20;99.90;;;;;;5006793;28;20453;-69
2022/12/31 02:45:46;;;;;;;2.90;1.30;;;11.20;99.90;;;;;;5006684;28;20068;-69
2022/12/31 02:48:31;;;;;;;5.00;1.50;;;11.10;99.90;;;;;;5008277;28;20058;-69
2022/12/31 02:51:01;;;;;;;5.43;1.52;;;11.10;99.90;;;;;;4987405;28;20108;-69
2022/12/31 02:53:50;;;;;;;3.40;1.40;;;11.10;99.90;;;;;;4989150;28;20232;-70
2022/12/31 02:56:30;;;;;;;7.57;2.13;;;11.10;99.90;;;;;;5009678;28;20045;-69
2022/12/31 03:02:12;;;;;;;6.97;1.58;;;11.10;99.90;;;;;;5020999;28;20290;-69
2022/12/31 03:04:44;;;;;;;5.63;1.23;;;11.10;99.90;;;;;;5025997;28;20049;-69
2022/12/31 03:07:17;;;;;;;7.88;1.15;;;11.00;99.90;;;;;;5027207;28;20470;-67
2022/12/31 03:09:42;;;;;;;6.20;1.30;;;11.00;99.90;;;;;;5024048;28;20048;-69
2022/12/31 03:14:54;;;;;;;8.02;1.10;;;11.00;99.90;;;;;;4973193;28;20536;-69
2022/12/31 03:17:20;;;;;;;3.50;0.90;;;11.00;99.90;;;;;;5017133;28;20155;-69
2022/12/31 03:22:31;;;;;;;6.55;1.40;;;11.00;99.90;;;;;;5027116;28;20064;-69
2022/12/31 03:27:53;;;;;;;7.47;0.77;;;10.90;99.90;;;;;;5014217;28;20068;-69
2022/12/31 03:30:20;;;;;;;3.95;0.70;;;10.90;99.90;;;;;;5007676;28;20053;-69
2022/12/31 03:32:47;;;;;;;2.05;0.50;;;10.90;99.90;;;;;;5014127;28;20049;-69
2022/12/31 03:35:15;;;;;;;4.40;0.60;;;10.90;99.90;;;;;;5005827;28;20369;-69
2022/12/31 03:37:41;;;;;;;2.50;0.80;;;10.90;99.90;;;;;;5007879;28;20407;-69
2022/12/31 03:40:09;;;;;;;3.50;0.68;;;10.80;99.90;;;;;;5006096;28;20072;-69
2022/12/31 03:42:35;;;;;;;4.03;0.93;;;10.90;99.90;;;;;;5006042;28;20631;-68
2022/12/31 03:45:01;;;;;;;3.00;0.82;;;10.80;99.90;;;;;;5004765;28;20041;-68
2022/12/31 03:47:27;;;;;;;5.60;0.88;;;10.80;99.90;;;;;;5007456;28;20054;-69
2022/12/31 03:49:53;;;;;;;5.80;0.55;;;10.80;99.90;;;;;;5010753;28;20088;-69
2022/12/31 03:52:19;;;;;;;1.90;0.70;;;10.80;99.90;;;;;;5025859;28;20057;-69
2022/12/31 03:54:44;;;;;;;2.95;1.80;;;10.80;99.90;;;;;;5016494;28;20050;-68
2022/12/31 03:57:10;;;;;;;3.57;0.73;;;10.80;99.90;;;;;;5021107;28;20141;-68
2022/12/31 03:59:36;;;;;;;3.87;0.83;;;10.80;99.90;;;;;;5026764;28;20104;-69
2022/12/31 04:02:01;;;;;;;2.90;0.55;;;10.80;99.90;;;;;;5014196;28;20076;-69
2022/12/31 04:04:27;;;;;;;5.63;1.00;;;10.80;99.90;;;;;;5015783;28;20089;-68
2022/12/31 04:06:53;;;;;;;5.63;0.90;;;10.80;99.90;;;;;;5025218;28;20049;-68
2022/12/31 04:09:19;;;;;;;4.63;0.60;;;10.80;99.90;;;;;;5027181;28;20543;-69
2022/12/31 04:11:44;;;;;;;7.57;0.93;;;10.90;99.90;;;;;;5019065;28;20038;-69
2022/12/31 04:14:10;;;;;;;1.83;0.60;;;10.80;99.90;;;;;;5026832;28;20194;-68
2022/12/31 04:16:36;;;;;;;3.92;0.70;;;10.80;99.90;;;;;;5027172;28;20083;-69
2022/12/31 04:19:02;;;;;;;6.10;1.05;;;10.80;99.90;;;;;;5027650;28;20049;-68
2022/12/31 04:21:28;;;;;;;3.45;0.60;;;10.80;99.90;;;;;;5030288;28;20052;-69
2022/12/31 04:23:54;;;;;;;2.23;0.70;;;10.80;99.90;;;;;;5010986;28;20054;-69
2022/12/31 04:26:20;;;;;;;2.72;0.73;;;10.80;99.90;;;;;;5009135;28;20068;-69
2022/12/31 04:28:46;;;;;;;3.92;0.82;;;10.80;99.90;;;;;;5013881;28;20391;-68
2022/12/31 04:31:12;;;;;;;3.20;1.33;;;10.80;99.90;;;;;;5028945;28;20052;-69
2022/12/31 04:33:37;;;;;;;3.30;0.50;;;10.70;99.90;;;;;;5029116;28;20049;-69
2022/12/31 04:36:04;;;;;;;4.20;0.70;;;10.70;99.90;;;;;;5012361;28;20513;-69
2022/12/31 04:38:30;;;;;;;2.22;0.73;;;10.70;99.90;;;;;;5030453;28;20095;-69
2022/12/31 04:43:42;;;;;;;5.35;1.17;;;10.70;99.90;;;;;;5030520;28;20474;-69
2022/12/31 04:46:07;;;;;;;;;;;10.70;99.90;;;;;;5030932;28;20046;-69
2022/12/31 04:48:33;;;;;;;3.75;0.93;;;10.70;99.90;;;;;;5028821;28;19939;-69
2022/12/31 04:50:59;;;;;;;2.92;1.02;;;10.70;99.90;;;;;;5028694;28;20064;-69
2022/12/31 04:53:26;;;;;;;2.35;0.88;;;10.70;99.90;;;;;;5029018;28;20057;-68
2022/12/31 04:55:51;;;;;;;6.65;1.15;;;10.70;99.90;;;;;;5029731;28;20231;-68
2022/12/31 04:58:17;;;;;;;1.83;0.77;;;10.70;99.90;;;;;;5030299;28;20121;-69
2022/12/31 05:00:44;;;;;;;6.93;1.33;;;10.70;99.90;;;;;;5028423;28;20096;-69
2022/12/31 05:03:11;;;;;;;2.63;0.75;;;10.70;99.90;;;;;;5014874;28;20042;-69
2022/12/31 05:05:37;;;;;;;;;;;10.70;99.90;;;;;;5018259;28;20136;-69
2022/12/31 05:08:03;;;;;;;7.22;1.00;;;10.70;99.90;;;;;;5030000;28;19967;-69
2022/12/31 05:10:29;;;;;;;7.93;1.58;;;10.70;99.90;;;;;;5028236;28;20494;-68
2022/12/31 05:12:55;;;;;;;3.17;1.20;;;10.70;99.90;;;;;;5009660;28;20053;-68
2022/12/31 05:15:20;;;;;;;3.93;1.20;;;10.60;99.90;;;;;;5008516;28;20042;-68
2022/12/31 05:17:46;;;;;;;6.47;1.37;;;10.60;99.90;;;;;;5008467;28;20071;-68
2022/12/31 05:20:12;;;;;;;5.73;1.17;;;10.60;99.90;;;;;;5022254;28;20041;-68
2022/12/31 05:22:37;;;;;;;2.90;1.00;;;10.60;99.90;;;;;;5027997;28;20498;-69
2022/12/31 05:25:03;;;;;;;7.30;0.93;;;10.70;99.90;;;;;;5027983;28;20045;-68
2022/12/31 05:27:29;;;;;;;4.97;1.20;;;10.70;99.90;;;;;;5029450;28;20053;-69
2022/12/31 05:29:55;;;;;;;8.35;1.42;;;10.70;99.90;;;;;;5029292;28;20180;-69
2022/12/31 05:32:25;;;;;;;8.03;1.07;;;10.70;99.90;;;;;;5067478;22;20627;-86
2022/12/31 05:35:04;;;;;;;5.20;1.10;;;10.70;99.90;;;;;;5029258;28;20041;-86
2022/12/31 05:37:38;;;;;;;5.38;1.60;;;10.70;99.90;;;;;;5045117;28;20089;-82
2022/12/31 05:40:23;;;;;;;5.37;1.43;;;10.80;99.90;;;;;;5020673;28;20036;-85
2022/12/31 05:42:52;;;;;;;4.63;1.70;;;10.80;99.90;;;;;;5033242;28;20048;-83
2022/12/31 05:45:28;;;;;;;3.70;1.42;;;10.80;99.90;;;;;;5019625;28;20040;-86
2022/12/31 05:47:59;;;;;;;5.47;1.65;;;10.90;99.90;;;;;;5035711;28;20032;-84
2022/12/31 05:50:27;;;;;;;3.95;1.95;;;10.90;99.90;;;;;;5014731;28;20036;-85
2022/12/31 05:53:03;;;;;;;3.55;1.55;;;10.90;99.90;;;;;;5023812;28;20047;-84
2022/12/31 05:55:38;;;;;;;3.25;1.85;;;10.90;99.90;;;;;;5008635;28;20136;-84
2022/12/31 05:58:07;;;;;;;5.60;1.65;;;10.90;99.90;;;;;;5021271;28;20055;-85
2022/12/31 06:00:35;;;;;;;3.55;1.63;;;10.80;99.90;;;;;;5026464;28;20050;-85
2022/12/31 06:03:07;;;;;;;7.55;2.10;;;10.90;99.90;;;;;;5022505;28;20045;-85
2022/12/31 06:05:36;;;;;;;2.80;1.58;;;10.80;99.90;;;;;;5033354;28;20057;-84
2022/12/31 06:08:07;;;;;;;6.75;1.70;;;10.90;99.90;;;;;;5039134;28;20388;-84
2022/12/31 06:10:38;;;;;;;2.53;1.40;;;10.80;99.90;;;;;;5012210;28;20075;-84
2022/12/31 06:13:29;;;;;;;5.32;1.75;;;10.80;99.90;;;;;;5036543;28;20196;-84
2022/12/31 06:15:58;;;;;;;2.10;1.25;;;10.70;99.90;;;;;;5013485;28;20425;-82
2022/12/31 06:18:27;;;;;;;2.95;1.65;;;10.70;99.90;;;;;;5031771;28;20070;-84
2022/12/31 06:20:56;;;;;;;5.15;1.80;;;10.70;99.90;;;;;;5024721;28;20493;-83
2022/12/31 06:23:45;;;;;;;4.80;2.22;;;10.80;99.90;;;;;;5011617;28;20053;-84
2022/12/31 06:26:11;;;;;;;2.22;1.42;;;10.80;99.90;;;;;;5037412;28;20040;-84
2022/12/31 06:28:45;;;;;;;5.07;2.10;;;10.80;99.90;;;;;;5050046;28;20041;-86
2022/12/31 06:31:24;;;;;;;3.38;1.65;;;10.80;99.90;;;;;;5037562;28;20040;-84
2022/12/31 06:34:06;;;;;;;3.97;2.20;;;10.70;99.90;;;;;;5021636;28;20043;-84
2022/12/31 06:36:41;;;;;;;5.03;2.00;;;10.80;99.90;;;;;;5023425;28;20068;-85
2022/12/31 06:39:10;;;;;;;5.35;2.20;;;10.70;99.90;;;;;;5037507;28;20071;-84
2022/12/31 06:41:38;;;;;;;4.85;1.90;;;10.70;99.90;;;;;;5042035;28;20041;-85
2022/12/31 06:44:22;;;;;;;7.32;1.88;;;10.70;99.90;;;;;;5025164;28;20043;-84
2022/12/31 06:47:05;;;;;;;4.15;1.85;;;10.70;99.90;;;;;;5050738;28;20053;-86
2022/12/31 06:49:54;;;;;;;;;;;;;;;;;;;;;
2022/12/31 06:52:31;;;;;;;4.07;1.40;;;10.60;99.90;;;;;;5034221;28;20085;-83
2022/12/31 06:55:02;;;;;;;2.20;1.33;;;10.60;99.90;;;;;;5014858;28;20055;-85
2022/12/31 06:57:32;;;;;;;7.85;1.85;;;10.60;99.90;;;;;;5028091;28;20836;-84
2022/12/31 07:00:12;;;;;;;2.72;1.40;;;10.60;99.90;;;;;;5024714;28;20467;-83
2022/12/31 07:03:22;;;;;;;5.35;1.63;;;10.60;99.90;;;;;;5028800;28;20083;-86
2022/12/31 07:06:23;;;;;;;5.00;1.98;;;10.50;99.90;;;;;;5015448;28;20120;-85
2022/12/31 07:08:54;;;;;;;3.10;1.50;;;10.50;99.90;;;;;;5032400;28;20190;-85
2022/12/31 07:12:28;;;;;;;3.83;1.80;;;10.60;99.90;;;;;;5034905;28;20033;-84
2022/12/31 07:15:46;;;;;;;7.25;1.63;;;10.50;99.90;;;;;;4997025;28;20057;-84
2022/12/31 07:18:44;;;;;;;6.03;1.50;;;10.40;99.90;;;;;;5027055;28;20049;-84
2022/12/31 07:21:26;;;;;;;3.42;1.98;;;10.40;99.90;;;;;;4979907;28;20512;-84
2022/12/31 07:23:57;;;;;;;2.55;1.33;;;10.40;99.90;;;;;;5030662;28;20116;-86
2022/12/31 07:26:51;;;;;;;5.72;1.52;;;10.50;99.90;;;;;;5019372;28;20049;-84
2022/12/31 07:33:22;;;;;;;3.97;1.33;;;10.50;99.90;;;;;;5052989;28;20416;-84
2022/12/31 07:36:03;;;;;;;3.42;1.10;;;10.40;99.90;;;;;;5061220;28;20440;-85
2022/12/31 07:38:52;;;;;;;3.15;1.15;;;10.40;99.90;;;;;;5015109;28;20041;-84
2022/12/31 07:41:32;;;;;;;3.75;1.10;;;10.50;99.90;;;;;;4985265;28;20062;-87
2022/12/31 07:44:30;;;;;;;2.15;1.15;;;10.50;99.90;;;;;;5021179;28;20083;-84
2022/12/31 07:47:30;;;;;;;;;;;;;;;;;;;;;
2022/12/31 07:50:03;;;;;;;1.85;0.93;;;10.40;99.90;;;;;;5058622;28;20120;-86
2022/12/31 07:52:39;;;;;;;;;;;;;;;;;;;;;
2022/12/31 07:55:19;;;;;;;2.55;1.30;;;10.40;99.90;;;;;;5058012;28;20040;-84
2022/12/31 07:58:00;;;;;;;2.83;1.25;;;10.50;99.90;;;;;;5035895;28;20040;-85
2022/12/31 08:00:36;;;;;;;3.70;1.20;;;10.40;99.90;;;;;;5030680;28;20113;-85
2022/12/31 08:03:40;;;;;;;5.20;1.63;;;10.40;99.90;;;;;;5021798;28;20076;-86
2022/12/31 08:06:34;;;;;;;2.10;1.30;;;10.50;99.90;;;;;;5037611;28;20749;-85
2022/12/31 08:09:48;;;;;;;1.98;1.35;;;10.50;99.90;;;;;;5025449;28;20041;-85
2022/12/31 08:12:18;;;;;;;2.70;1.23;;;10.40;99.90;;;;;;5021912;28;20036;-83
2022/12/31 08:15:14;;;;;;;2.00;1.30;;;10.50;99.90;;;;;;5020208;28;20032;-86
2022/12/31 08:18:05;;;;;;;1.50;1.08;;;10.50;99.90;;;;;;5049584;28;20043;-84
2022/12/31 08:20:46;;;;;;;2.42;1.20;;;10.50;99.90;;;;;;5024791;28;20094;-85
2022/12/31 08:23:42;;;;;;;2.10;1.10;;;10.60;99.90;;;;;;5021604;28;20041;-84
2022/12/31 08:26:47;;;;;;;1.13;0.90;;;10.60;99.90;;;;;;5027642;28;20045;-84
2022/12/31 08:29:37;;;;;;;3.38;1.20;;;10.70;99.90;;;;;;5029337;28;20544;-85
2022/12/31 08:32:35;;;;;;;1.85;1.02;;;10.70;99.90;;;;;;5021064;28;20408;-84
2022/12/31 08:35:29;;;;;;;2.38;1.30;;;10.80;99.90;;;;;;5013852;28;20457;-85
2022/12/31 08:38:08;;;;;;;2.88;1.38;;;10.90;99.90;;;;;;5033849;28;20045;-85
2022/12/31 08:41:06;;;;;;;4.38;1.40;;;10.80;99.90;;;;;;5046889;28;20039;-87
2022/12/31 08:44:19;;;;;;;2.15;1.30;;;10.90;99.90;;;;;;5034329;28;20087;-87
2022/12/31 08:47:13;;;;;;;2.90;1.50;;;11.00;99.90;;;;;;4994004;28;20061;-84
2022/12/31 08:49:49;;;;;;;2.13;1.45;;;11.00;99.90;;;;;;5017460;28;20052;-86
2022/12/31 08:52:25;;;;;;;3.28;1.63;;;11.10;99.90;;;;;;5030017;28;20041;-85
2022/12/31 08:55:04;;;;;;;2.35;1.60;;;11.20;99.90;;;;;;5043208;28;20043;-85
2022/12/31 08:57:35;;;;;;;3.92;1.75;;;11.20;99.90;;;;;;5021424;28;20040;-87
2022/12/31 09:00:13;;;;;;;3.10;1.48;;;11.30;99.90;;;;;;5027341;28;20136;-86
2022/12/31 09:02:55;;;;;;;4.05;1.65;;;11.40;99.90;;;;;;5021260;28;20052;-87
2022/12/31 09:06:14;;;;;;;4.18;2.40;;;11.50;99.90;;;;;;5023591;28;20049;-87
2022/12/31 09:09:07;;;;;;;5.22;1.92;;;11.60;99.90;;;;;;4955888;28;20031;-83
2022/12/31 09:12:12;;;;;;;2.38;1.10;;;11.70;99.90;;;;;;4965619;28;20499;-85
2022/12/31 09:15:27;;;;;;;4.55;1.60;;;11.70;99.90;;;;;;5013407;28;20522;-85
2022/12/31 09:17:55;;;;;;;5.05;1.35;;;11.80;99.90;;;;;;5021335;28;20037;-86
2022/12/31 09:20:35;;;;;;;3.67;1.10;;;11.90;99.90;;;;;;5043819;28;20033;-86
2022/12/31 09:23:04;;;;;;;3.58;1.30;;;12.00;99.90;;;;;;5043850;28;20041;-85
2022/12/31 09:25:39;;;;;;;5.18;3.38;;;12.00;99.90;;;;;;5035949;28;20073;-84
2022/12/31 09:28:25;;;;;;;7.93;3.40;;;12.10;99.90;;;;;;5014409;28;20143;-85
2022/12/31 09:31:20;;;;;;;6.93;3.92;;;12.10;99.90;;;;;;5019185;28;20037;-87
2022/12/31 09:34:06;;;;;;;6.40;2.60;;;12.10;99.90;;;;;;5011396;28;20041;-85
2022/12/31 09:36:49;;;;;;;4.53;2.70;;;12.20;99.90;;;;;;5014110;28;20378;-84
2022/12/31 09:39:18;;;;;;;3.65;1.92;;;12.20;99.90;;;;;;5034934;28;20060;-84
2022/12/31 09:42:14;;;;;;;1.80;1.10;;;12.20;99.90;;;;;;5023006;28;20044;-86
2022/12/31 09:45:11;;;;;;;4.13;0.93;;;12.20;99.90;;;;;;5028688;28;20041;-86
2022/12/31 09:48:08;;;;;;;2.30;0.93;;;12.20;99.90;;;;;;5019256;28;20048;-84
2022/12/31 09:50:40;;;;;;;2.30;0.85;;;12.30;99.90;;;;;;5029254;28;20036;-89
2022/12/31 09:53:27;;;;;;;1.85;0.60;;;12.30;99.90;;;;;;5019731;28;20571;-87
2022/12/31 09:56:14;;;;;;;2.20;0.80;;;12.30;99.90;;;;;;5045485;28;20032;-85
2022/12/31 09:58:59;;;;;;;1.30;0.60;;;12.40;99.90;;;;;;5037664;28;20120;-84
2022/12/31 10:01:37;;;;;;;1.77;0.40;;;12.40;99.90;;;;;;5024787;28;20458;-85
2022/12/31 10:04:38;;;;;;;4.55;0.60;;;12.40;99.90;;;;;;5014247;28;20041;-85
2022/12/31 10:07:43;;;;;;;3.67;0.82;;;12.40;99.90;;;;;;4980175;28;20092;-83
2022/12/31 10:10:20;;;;;;;1.98;0.85;;;12.40;99.90;;;;;;4979625;28;20049;-84
2022/12/31 10:13:29;;;;;;;5.70;0.85;;;12.40;99.90;;;;;;5043398;28;20036;-85
2022/12/31 10:16:16;;;;;;;3.75;0.77;;;12.40;99.90;;;;;;5022108;28;20052;-84
2022/12/31 10:19:00;;;;;;;3.95;0.95;;;12.40;99.90;;;;;;5023872;28;20043;-84
2022/12/31 10:21:28;;;;;;;5.80;0.70;;;12.40;99.90;;;;;;5022173;28;20102;-85
2022/12/31 10:24:23;;;;;;;4.45;1.00;;;12.40;99.90;;;;;;5022603;28;20064;-85
2022/12/31 10:27:36;;;;;;;7.35;1.00;;;12.50;99.90;;;;;;5041747;28;20045;-84
2022/12/31 10:30:23;;;;;;;5.93;1.33;;;12.40;99.90;;;;;;5017587;28;20045;-84
2022/12/31 10:33:00;;;;;;;5.45;0.77;;;12.40;99.90;;;;;;5030430;28;20045;-87
2022/12/31 10:35:52;;;;;;;4.05;0.65;;;12.50;99.90;;;;;;5025644;28;20037;-86
2022/12/31 10:38:25;;;;;;;3.63;1.38;;;12.50;99.90;;;;;;5021984;28;20041;-84
2022/12/31 10:41:24;;;;;;;5.43;0.73;;;12.50;99.90;;;;;;5054503;28;20067;-87
2022/12/31 10:44:14;;;;;;;7.63;1.48;;;12.60;99.90;;;;;;5037503;28;20116;-86
2022/12/31 10:46:58;;;;;;;10.65;1.25;;;12.60;99.90;;;;;;5027853;28;20045;-84
2022/12/31 10:49:57;;;;;;;5.20;0.98;;;12.60;99.90;;;;;;5044869;28;20032;-86
2022/12/31 10:52:58;;;;;;;6.45;1.20;;;12.70;99.90;;;;;;5027530;28;20146;-85
2022/12/31 10:55:42;;;;;;;5.85;0.98;;;12.70;99.90;;;;;;5055706;28;20139;-85
2022/12/31 10:58:30;;;;;;;9.65;1.42;;;12.80;99.90;;;;;;5058149;28;20492;-84
2022/12/31 11:01:07;;;;;;;;;;;12.80;99.90;;;;;;5029379;28;20037;-85
2022/12/31 11:04:10;;;;;;;4.25;1.27;;;12.80;99.90;;;;;;5037185;28;19917;-86
2022/12/31 11:06:56;;;;;;;18.73;2.03;;;12.90;99.90;;;;;;5014718;28;20504;-84
2022/12/31 11:09:49;;;;;;;4.55;1.67;;;12.90;99.90;;;;;;5026860;28;20036;-87
2022/12/31 11:12:29;;;;;;;9.55;1.40;;;12.90;99.90;;;;;;5060580;28;20033;-85
2022/12/31 11:15:27;;;;;;;6.65;1.73;;;12.90;99.90;;;;;;5036159;28;20047;-83
2022/12/31 11:18:08;;;;;;;12.23;1.63;;;12.90;99.90;;;;;;5050572;28;20408;-84
2022/12/31 11:21:30;;;;;;;7.05;1.38;;;13.00;99.90;;;;;;5040380;28;20128;-87
2022/12/31 11:24:33;;;;;;;6.78;1.40;;;13.00;99.90;;;;;;4937871;28;20041;-83
2022/12/31 11:27:15;;;;;;;10.32;1.27;;;13.00;99.90;;;;;;5021638;28;20048;-87
2022/12/31 11:30:19;;;;;;;12.75;1.00;;;13.10;99.90;;;;;;5017361;28;20128;-85
2022/12/31 11:36:58;;;;;;;9.82;1.45;;;13.10;99.90;;;;;;5036827;28;20044;-84
2022/12/31 11:40:49;;;;;;;;;;;;;;;;;;;;;
2022/12/31 11:47:27;;;;;;;5.93;0.90;;;13.20;99.90;;;;;;5031367;28;20041;-84
2022/12/31 11:50:25;;;;;;;8.80;1.00;;;13.10;99.90;;;;;;5035309;28;20335;-83
2022/12/31 11:53:24;;;;;;;5.18;1.17;;;13.20;99.90;;;;;;5033945;22;20053;-69
2022/12/31 11:56:45;;;;;;;10.35;1.83;;;13.20;99.90;;;;;;5041682;28;20045;-70
2022/12/31 11:59:13;;;;;;;11.85;1.73;;;13.30;99.90;;;;;;4948117;28;20116;-69
2022/12/31 12:02:03;;;;;;;4.97;1.00;;;13.20;99.90;;;;;;5023722;28;20052;-69
2022/12/31 12:04:29;;;;;;;9.55;1.42;;;13.20;99.90;;;;;;5004791;28;20044;-69
2022/12/31 12:06:55;;;;;;;;;;;13.20;99.90;;;;;;5036119;28;20053;-70
2022/12/31 12:09:33;;;;;;;2.67;0.90;;;13.20;99.90;;;;;;5035352;28;20283;-69
2022/12/31 12:12:01;;;;;;;4.65;2.03;;;13.20;99.90;;;;;;5029396;28;20080;-69
2022/12/31 12:14:30;;;;;;;5.30;1.30;;;13.20;99.90;;;;;;5033089;28;20041;-69
2022/12/31 12:16:57;;;;;;;6.10;1.38;;;13.20;99.90;;;;;;5025539;28;20064;-71
2022/12/31 12:19:26;;;;;;;8.30;1.48;;;13.20;99.90;;;;;;5035587;28;20152;-71
2022/12/31 12:21:53;;;;;;;8.52;1.02;;;13.20;99.90;;;;;;5032458;28;20041;-70
2022/12/31 12:24:20;;;;;;;4.57;0.85;;;13.30;99.90;;;;;;5026888;28;20045;-70
2022/12/31 12:26:46;;;;;;;6.63;1.35;;;13.30;99.90;;;;;;5026312;28;20053;-69
2022/12/31 12:29:21;;;;;;;11.52;1.38;;;13.30;99.90;;;;;;5030277;28;20137;-70
2022/12/31 12:32:13;;;;;;;8.65;1.40;;;13.20;99.90;;;;;;5031293;28;20049;-69
2022/12/31 12:34:40;;;;;;;7.63;1.98;;;13.20;99.90;;;;;;5023508;28;20053;-69
2022/12/31 12:37:27;;;;;;;8.48;2.42;;;13.30;99.90;;;;;;5033147;28;20060;-70
2022/12/31 12:40:01;;;;;;;11.67;1.77;;;13.20;99.90;;;;;;5030014;28;20037;-70
2022/12/31 12:42:28;;;;;;;6.93;1.50;;;13.20;99.90;;;;;;5041888;28;20739;-70
2022/12/31 12:45:03;;;;;;;9.48;1.88;;;13.10;99.90;;;;;;5028287;28;20063;-70
2022/12/31 12:47:29;;;;;;;8.75;1.83;;;13.10;99.90;;;;;;5029824;28;20064;-71
2022/12/31 12:49:55;;;;;;;9.98;1.38;;;13.10;99.90;;;;;;5029417;28;20045;-70
2022/12/31 12:52:23;;;;;;;8.30;1.60;;;13.10;99.90;;;;;;5026732;28;20092;-70
2022/12/31 12:55:07;;;;;;;5.57;1.25;;;13.10;99.90;;;;;;5034053;28;20044;-71
2022/12/31 12:58:06;;;;;;;3.83;1.50;;;13.00;99.90;;;;;;5041996;28;20407;-71
2022/12/31 13:00:45;;;;;;;8.77;1.67;;;13.00;99.90;;;;;;5032865;28;20041;-70
2022/12/31 13:03:22;;;;;;;11.98;2.30;;;13.00;99.90;;;;;;5033144;28;20551;-69
2022/12/31 13:06:00;;;;;;;8.20;2.80;;;13.00;99.90;;;;;;5028229;28;20487;-69
2022/12/31 13:08:33;;;;;;;4.68;1.35;;;13.00;99.90;;;;;;5032973;28;20038;-68
2022/12/31 13:11:25;;;;;;;8.57;1.27;;;13.00;99.90;;;;;;5023524;28;20491;-68
2022/12/31 13:14:25;;;;;;;9.40;1.70;;;13.00;99.90;;;;;;5033955;28;20395;-69
2022/12/31 13:17:29;;;;;;;11.30;2.83;;;12.90;99.90;;;;;;5033086;28;20044;-69
2022/12/31 13:20:32;;;;;;;7.13;1.27;;;12.90;99.90;;;;;;4952887;28;20050;-69
2022/12/31 13:23:13;;;;;;;9.93;3.10;;;12.90;99.90;;;;;;5040096;28;20041;-69
2022/12/31 13:25:58;;;;;;;8.57;2.28;;;12.90;99.90;;;;;;5032855;28;20268;-68
2022/12/31 13:28:24;;;;;;;8.18;1.60;;;12.80;99.90;;;;;;5030802;28;20052;-68
2022/12/31 13:31:13;;;;;;;6.93;1.77;;;12.80;99.90;;;;;;5027269;28;20034;-69
2022/12/31 13:33:47;;;;;;;4.75;1.25;;;12.80;99.90;;;;;;5028421;28;20069;-68
2022/12/31 13:36:20;;;;;;;6.07;1.00;;;12.80;99.90;;;;;;5027644;28;20132;-69
2022/12/31 13:38:56;;;;;;;4.82;1.23;;;12.70;99.90;;;;;;5035183;28;20416;-69
2022/12/31 13:41:37;;;;;;;9.50;1.98;;;12.80;99.90;;;;;;5036292;28;20033;-69
2022/12/31 13:44:10;;;;;;;6.20;1.05;;;12.80;99.90;;;;;;5027088;28;20044;-70
2022/12/31 13:46:38;;;;;;;6.35;1.67;;;12.70;99.90;;;;;;5029965;28;20057;-69
2022/12/31 13:49:12;;;;;;;4.93;1.45;;;12.70;99.90;;;;;;5028894;28;20050;-68
2022/12/31 13:51:47;;;;;;;8.27;1.45;;;12.60;99.90;;;;;;5028861;28;20153;-66
2022/12/31 13:54:27;;;;;;;3.75;1.00;;;12.60;99.90;;;;;;5035848;28;20033;-68
2022/12/31 13:56:58;;;;;;;2.42;0.68;;;12.60;99.90;;;;;;5029761;28;20044;-67
2022/12/31 13:59:33;;;;;;;2.88;1.20;;;12.60;99.90;;;;;;5026667;28;20060;-69
2022/12/31 14:02:38;;;;;;;6.97;2.97;;;12.60;99.90;;;;;;5031838;28;20128;-69
2022/12/31 14:05:40;;;;;;;7.65;2.35;;;12.60;99.90;;;;;;5026007;28;20082;-69
2022/12/31 14:08:06;;;;;;;3.03;1.30;;;12.60;99.90;;;;;;5032538;28;20053;-69
2022/12/31 14:10:48;;;;;;;4.23;2.17;;;12.60;99.90;;;;;;5030239;28;20507;-69